Time;durP1;ratioP1;P1;durP2;ratioP2;P2;SDS_P1;SDS_P2;PMS_P1;PMS_P2;Temp;Humidity;BMP_temperature;BMP_pressure;BME280_temperature;BME280_humidity;BME280_pressure;Samples;Min_cycle;Max_cycle;Signal;HPM_P1;HPM_P2
2021/10/06 00:02:08;;;;;;;3.20;0.70;;;12.40;99.90;;;;;;5043954;28;20128;-79
2021/10/06 00:04:35;;;;;;;3.83;0.77;;;12.30;99.90;;;;;;5046267;28;20132;-78
2021/10/06 00:07:02;;;;;;;3.60;0.80;;;12.30;99.90;;;;;;5047510;28;20127;-79
2021/10/06 00:09:29;;;;;;;3.22;1.02;;;12.30;99.90;;;;;;5044318;28;20132;-79
2021/10/06 00:11:56;;;;;;;5.13;1.10;;;12.30;99.90;;;;;;5043410;28;20132;-79
2021/10/06 00:14:25;;;;;;;3.45;0.93;;;12.20;99.90;;;;;;5045911;28;20132;-76
2021/10/06 00:16:53;;;;;;;2.00;0.60;;;12.20;99.90;;;;;;5047083;28;20139;-79
2021/10/06 00:19:21;;;;;;;4.20;0.80;;;12.20;99.90;;;;;;5045531;28;20484;-80
2021/10/06 00:21:48;;;;;;;3.70;0.80;;;12.20;99.90;;;;;;5046699;28;20139;-80
2021/10/06 00:24:15;;;;;;;2.85;0.95;;;12.20;99.90;;;;;;5045302;28;20136;-78
2021/10/06 00:26:42;;;;;;;2.92;0.80;;;12.20;99.90;;;;;;5043256;28;20122;-79
2021/10/06 00:29:09;;;;;;;2.95;0.90;;;12.10;99.90;;;;;;5043480;28;20472;-78
2021/10/06 00:31:38;;;;;;;2.10;0.75;;;12.10;99.90;;;;;;5042215;28;20132;-79
2021/10/06 00:34:05;;;;;;;3.80;0.85;;;12.10;99.90;;;;;;5042863;28;20128;-79
2021/10/06 00:36:32;;;;;;;2.67;0.80;;;12.10;99.90;;;;;;5049589;28;20132;-79
2021/10/06 00:38:59;;;;;;;1.50;0.50;;;12.20;99.90;;;;;;5042746;28;20124;-80
2021/10/06 00:41:26;;;;;;;2.50;0.70;;;12.10;99.90;;;;;;5044756;28;20156;-80
2021/10/06 00:43:53;;;;;;;8.40;1.00;;;12.20;99.90;;;;;;5046356;28;20139;-80
2021/10/06 00:46:20;;;;;;;3.90;0.80;;;12.20;99.90;;;;;;5045000;28;20132;-80
2021/10/06 00:48:48;;;;;;;2.53;0.63;;;12.20;99.90;;;;;;5043596;28;20129;-81
2021/10/06 00:51:17;;;;;;;2.92;0.80;;;12.20;99.90;;;;;;5045590;28;20144;-80
2021/10/06 00:53:44;;;;;;;2.83;0.80;;;12.20;99.90;;;;;;5041924;28;20082;-79
2021/10/06 00:56:11;;;;;;;2.75;0.90;;;12.20;99.90;;;;;;5045895;28;20128;-80
2021/10/06 00:58:38;;;;;;;2.17;0.70;;;12.20;99.90;;;;;;5042443;28;20602;-80
2021/10/06 01:01:05;;;;;;;3.47;0.95;;;12.20;99.90;;;;;;5042840;28;20451;-79
2021/10/06 01:03:32;;;;;;;2.67;0.75;;;12.10;99.90;;;;;;5045638;28;20123;-79
2021/10/06 01:06:01;;;;;;;4.88;0.80;;;12.20;99.90;;;;;;5045859;28;20136;-79
2021/10/06 01:08:28;;;;;;;1.30;0.57;;;12.10;99.90;;;;;;5043081;28;20128;-77
2021/10/06 01:10:56;;;;;;;2.30;0.47;;;12.20;99.90;;;;;;5047316;28;20149;-79
2021/10/06 01:13:23;;;;;;;3.25;0.75;;;12.10;99.90;;;;;;5043540;28;20132;-79
2021/10/06 01:15:53;;;;;;;2.55;0.70;;;12.10;99.90;;;;;;5042225;28;20132;-79
2021/10/06 01:18:20;;;;;;;2.90;0.70;;;12.10;99.90;;;;;;5043460;28;20144;-78
2021/10/06 01:20:47;;;;;;;2.25;0.90;;;12.10;99.90;;;;;;5044649;28;20119;-79
2021/10/06 01:23:17;;;;;;;2.53;0.70;;;12.10;99.90;;;;;;5044444;28;20124;-78
2021/10/06 01:25:44;;;;;;;2.75;0.70;;;12.10;99.90;;;;;;5041920;28;20129;-78
2021/10/06 01:28:11;;;;;;;4.20;0.65;;;12.10;99.90;;;;;;5042235;28;20451;-79
2021/10/06 01:30:38;;;;;;;2.17;0.50;;;12.10;99.90;;;;;;5043532;28;20554;-79
2021/10/06 01:33:07;;;;;;;2.10;0.80;;;12.10;99.90;;;;;;5045293;28;20128;-79
2021/10/06 01:35:34;;;;;;;2.33;0.60;;;12.10;99.90;;;;;;5045251;28;20135;-78
2021/10/06 01:38:02;;;;;;;2.22;0.60;;;12.10;99.90;;;;;;5045011;28;20134;-78
2021/10/06 01:40:30;;;;;;;2.45;0.63;;;12.10;99.90;;;;;;5044454;28;20477;-79
2021/10/06 01:42:57;;;;;;;1.95;0.70;;;12.10;99.90;;;;;;5045294;28;20131;-78
2021/10/06 01:45:29;;;;;;;3.53;0.57;;;12.10;99.90;;;;;;5042748;28;20123;-79
2021/10/06 01:48:05;;;;;;;1.95;0.68;;;12.10;99.90;;;;;;5035829;28;20144;-80
2021/10/06 01:50:33;;;;;;;2.83;0.70;;;12.10;99.90;;;;;;5041801;28;20048;-79
2021/10/06 01:53:00;;;;;;;3.17;0.75;;;12.10;99.90;;;;;;5041631;28;20482;-80
2021/10/06 01:55:32;;;;;;;2.83;0.70;;;12.00;99.90;;;;;;5044211;28;20046;-78
2021/10/06 01:58:01;;;;;;;2.40;0.52;;;12.10;99.90;;;;;;5045489;28;20117;-79
2021/10/06 02:00:29;;;;;;;1.73;0.52;;;12.00;99.90;;;;;;5042204;28;20140;-80
2021/10/06 02:02:56;;;;;;;1.73;0.60;;;12.00;99.90;;;;;;5041952;28;20140;-79
2021/10/06 02:05:23;;;;;;;3.10;0.80;;;12.00;99.90;;;;;;5043645;28;20124;-79
2021/10/06 02:07:51;;;;;;;1.33;0.40;;;12.00;99.90;;;;;;5044953;28;20135;-79
2021/10/06 02:10:18;;;;;;;2.22;0.60;;;12.00;99.90;;;;;;5043132;28;20131;-80
2021/10/06 02:12:46;;;;;;;4.35;1.00;;;12.00;99.90;;;;;;5041457;28;20135;-80
2021/10/06 02:15:13;;;;;;;2.20;0.60;;;12.00;99.90;;;;;;5042019;28;20137;-80
2021/10/06 02:17:40;;;;;;;1.85;0.80;;;12.00;99.90;;;;;;5044977;28;20578;-80
2021/10/06 02:20:08;;;;;;;2.85;0.68;;;12.00;99.90;;;;;;5044477;28;20133;-79
2021/10/06 02:22:36;;;;;;;1.63;0.60;;;12.00;99.90;;;;;;5043426;28;20124;-79
2021/10/06 02:25:04;;;;;;;3.30;0.70;;;12.00;99.90;;;;;;5044441;28;20123;-79
2021/10/06 02:27:31;;;;;;;2.88;0.60;;;12.00;99.90;;;;;;5041231;28;20128;-77
2021/10/06 02:30:00;;;;;;;2.75;0.50;;;12.00;99.90;;;;;;5041048;28;20120;-78
2021/10/06 02:32:27;;;;;;;2.53;0.70;;;12.00;99.90;;;;;;5043269;28;20053;-80
2021/10/06 02:34:54;;;;;;;3.13;0.80;;;12.10;99.90;;;;;;5044772;28;20579;-79
2021/10/06 02:37:21;;;;;;;3.40;0.63;;;12.10;99.90;;;;;;5042467;28;20132;-80
2021/10/06 02:39:48;;;;;;;2.20;0.65;;;12.10;99.90;;;;;;5044115;28;20558;-79
2021/10/06 02:42:15;;;;;;;1.35;0.50;;;12.10;99.90;;;;;;5043897;28;20140;-79
2021/10/06 02:44:42;;;;;;;3.17;0.90;;;12.10;99.90;;;;;;5047474;28;20132;-80
2021/10/06 02:47:10;;;;;;;3.15;0.60;;;12.10;99.90;;;;;;5040636;28;20069;-79
2021/10/06 02:49:37;;;;;;;2.58;0.65;;;12.10;99.90;;;;;;5040787;28;20120;-77
2021/10/06 02:52:05;;;;;;;3.10;0.55;;;12.20;99.90;;;;;;5040955;28;20132;-80
2021/10/06 02:54:32;;;;;;;3.60;0.65;;;12.20;99.90;;;;;;5048699;28;20132;-78
2021/10/06 02:57:01;;;;;;;1.77;0.43;;;12.20;99.90;;;;;;5040710;28;20132;-79
2021/10/06 02:59:29;;;;;;;2.35;0.75;;;12.20;99.90;;;;;;5043440;28;20041;-79
2021/10/06 03:01:56;;;;;;;4.32;0.90;;;12.20;99.90;;;;;;5043339;28;20410;-80
2021/10/06 03:04:25;;;;;;;3.53;0.60;;;12.20;99.80;;;;;;5040147;28;20049;-79
2021/10/06 03:06:53;;;;;;;2.45;0.50;;;12.20;99.70;;;;;;5037623;28;20125;-79
2021/10/06 03:09:20;;;;;;;2.20;0.50;;;12.20;99.70;;;;;;5044069;28;20127;-79
2021/10/06 03:11:47;;;;;;;1.30;0.45;;;12.20;99.60;;;;;;5036967;28;20456;-77
2021/10/06 03:14:14;;;;;;;2.78;0.60;;;12.10;99.60;;;;;;5037782;28;20142;-80
2021/10/06 03:16:41;;;;;;;3.40;0.80;;;12.10;99.60;;;;;;5040640;28;20047;-79
2021/10/06 03:19:08;;;;;;;2.33;0.77;;;12.20;99.70;;;;;;5040155;28;20132;-79
2021/10/06 03:21:37;;;;;;;2.78;0.95;;;12.10;99.60;;;;;;5039539;28;20064;-79
2021/10/06 03:24:05;;;;;;;3.05;0.70;;;12.10;99.60;;;;;;5040833;28;20128;-79
2021/10/06 03:26:32;;;;;;;4.13;0.65;;;12.20;99.50;;;;;;5048755;28;20140;-78
2021/10/06 03:28:59;;;;;;;2.17;0.47;;;12.20;99.60;;;;;;5040856;28;20047;-80
2021/10/06 03:31:27;;;;;;;2.72;0.80;;;12.20;99.80;;;;;;5042809;28;20045;-79
2021/10/06 03:33:54;;;;;;;3.20;0.75;;;12.20;99.60;;;;;;5043978;28;20044;-75
2021/10/06 03:36:21;;;;;;;2.50;0.70;;;12.20;99.50;;;;;;5042318;28;20148;-78
2021/10/06 03:38:50;;;;;;;2.00;0.50;;;12.20;99.50;;;;;;5039004;28;20069;-78
2021/10/06 03:41:17;;;;;;;3.08;0.60;;;12.20;99.60;;;;;;5042395;28;20132;-81
2021/10/06 03:43:44;;;;;;;3.45;0.60;;;12.20;99.60;;;;;;5040819;28;20136;-80
2021/10/06 03:46:11;;;;;;;2.88;0.65;;;12.20;99.50;;;;;;5040757;28;20172;-78
2021/10/06 03:48:38;;;;;;;2.45;0.70;;;12.20;99.60;;;;;;5043814;28;20045;-78
2021/10/06 03:51:05;;;;;;;2.35;0.65;;;12.20;99.50;;;;;;5044054;28;20327;-79
2021/10/06 03:53:32;;;;;;;2.08;0.70;;;12.20;99.60;;;;;;5047924;28;20148;-79
2021/10/06 03:56:00;;;;;;;2.17;0.80;;;12.10;99.60;;;;;;5040267;28;20132;-79
2021/10/06 03:58:28;;;;;;;2.50;0.70;;;12.10;99.60;;;;;;5042606;28;20144;-77
2021/10/06 04:00:55;;;;;;;5.00;0.80;;;12.20;99.70;;;;;;5044286;28;20129;-80
2021/10/06 04:03:22;;;;;;;4.88;0.88;;;12.20;99.60;;;;;;5045308;28;20133;-78
2021/10/06 04:05:50;;;;;;;3.05;0.80;;;12.20;99.60;;;;;;5043484;28;20136;-79
2021/10/06 04:08:18;;;;;;;3.90;0.77;;;12.10;99.50;;;;;;5042634;28;20137;-79
2021/10/06 04:10:45;;;;;;;3.03;0.65;;;12.10;99.50;;;;;;5046970;28;20051;-80
2021/10/06 04:13:13;;;;;;;2.60;0.60;;;12.10;99.50;;;;;;5046056;28;20139;-80
2021/10/06 04:15:40;;;;;;;3.92;0.80;;;12.10;99.60;;;;;;5046103;28;20073;-81
2021/10/06 04:18:08;;;;;;;2.58;0.80;;;12.10;99.50;;;;;;5046472;28;20124;-80
2021/10/06 04:20:36;;;;;;;3.22;0.85;;;12.10;99.50;;;;;;5048365;28;20574;-80
2021/10/06 04:23:03;;;;;;;2.17;0.60;;;12.10;99.20;;;;;;5045396;28;20041;-78
2021/10/06 04:25:30;;;;;;;2.65;0.60;;;12.10;99.30;;;;;;5041690;28;20140;-78
2021/10/06 04:27:57;;;;;;;2.58;0.70;;;12.10;99.40;;;;;;5043131;28;20128;-79
2021/10/06 04:30:26;;;;;;;2.55;0.57;;;12.10;99.50;;;;;;5035390;28;20132;-80
2021/10/06 04:32:53;;;;;;;2.45;0.75;;;12.10;99.40;;;;;;5034958;28;20049;-79
2021/10/06 04:35:20;;;;;;;3.72;1.00;;;12.10;99.60;;;;;;5035314;28;20132;-76
2021/10/06 04:37:47;;;;;;;3.05;0.88;;;12.10;99.20;;;;;;5035359;28;20140;-80
2021/10/06 04:40:14;;;;;;;3.58;0.80;;;12.10;99.30;;;;;;5035201;28;20144;-80
2021/10/06 04:42:44;;;;;;;2.60;0.77;;;12.00;99.30;;;;;;5035027;28;20144;-80
2021/10/06 04:45:11;;;;;;;3.17;0.70;;;12.00;99.40;;;;;;5035096;28;20045;-80
2021/10/06 04:47:40;;;;;;;4.07;0.60;;;12.10;99.30;;;;;;5035109;28;20545;-78
2021/10/06 04:50:09;;;;;;;3.42;1.00;;;12.10;99.40;;;;;;5035080;28;20136;-78
2021/10/06 04:52:36;;;;;;;2.05;0.60;;;12.00;99.40;;;;;;5034735;28;20155;-79
2021/10/06 04:55:04;;;;;;;2.47;0.70;;;12.00;99.30;;;;;;5034742;28;20080;-79
2021/10/06 04:57:31;;;;;;;1.55;0.60;;;12.00;99.20;;;;;;5035030;28;20133;-80
2021/10/06 04:59:58;;;;;;;3.85;0.75;;;12.00;99.30;;;;;;5034822;28;20149;-80
2021/10/06 05:02:25;;;;;;;3.60;0.68;;;12.00;99.40;;;;;;5034935;28;20137;-80
2021/10/06 05:04:53;;;;;;;3.40;0.70;;;12.00;99.30;;;;;;5034831;28;20055;-81
2021/10/06 05:07:20;;;;;;;3.55;0.70;;;12.00;99.30;;;;;;5034608;28;20048;-80
2021/10/06 05:09:47;;;;;;;1.70;0.70;;;12.10;99.30;;;;;;5034438;28;20136;-79
2021/10/06 05:12:14;;;;;;;2.30;0.52;;;12.10;99.20;;;;;;5034523;28;20085;-80
2021/10/06 05:14:41;;;;;;;3.55;0.85;;;12.10;99.20;;;;;;5034605;28;20132;-79
2021/10/06 05:17:08;;;;;;;2.53;0.68;;;12.10;99.20;;;;;;5034412;28;20124;-78
2021/10/06 05:19:35;;;;;;;3.22;0.88;;;12.10;99.10;;;;;;5034298;28;20137;-80
2021/10/06 05:22:04;;;;;;;3.42;0.90;;;12.00;99.00;;;;;;5034218;28;20136;-79
2021/10/06 05:24:31;;;;;;;3.63;0.82;;;12.00;99.20;;;;;;5034173;28;20100;-78
2021/10/06 05:26:58;;;;;;;3.67;0.90;;;12.10;99.90;;;;;;5034358;28;20132;-81
2021/10/06 05:29:25;;;;;;;2.70;1.08;;;12.00;99.90;;;;;;5034217;28;20581;-80
2021/10/06 05:31:52;;;;;;;2.97;0.80;;;12.10;99.30;;;;;;5034186;28;20084;-79
2021/10/06 05:34:19;;;;;;;2.65;0.90;;;12.00;99.30;;;;;;5034129;28;20088;-79
2021/10/06 05:36:46;;;;;;;3.65;0.85;;;12.10;99.30;;;;;;5033973;28;20132;-80
2021/10/06 05:39:15;;;;;;;3.08;0.85;;;12.10;99.20;;;;;;5033933;28;20511;-80
2021/10/06 05:41:42;;;;;;;3.20;0.65;;;12.00;99.10;;;;;;5033902;28;20105;-78
2021/10/06 05:44:09;;;;;;;2.83;0.70;;;12.10;99.10;;;;;;5045305;28;20044;-78
2021/10/06 05:46:36;;;;;;;2.30;0.70;;;12.00;99.00;;;;;;5053913;28;20136;-78
2021/10/06 05:49:03;;;;;;;3.05;0.80;;;12.10;99.00;;;;;;5053758;28;20573;-77
2021/10/06 05:51:30;;;;;;;4.53;1.17;;;12.00;99.00;;;;;;5053663;28;20503;-79
2021/10/06 05:53:57;;;;;;;2.30;0.70;;;12.00;98.90;;;;;;5053269;28;20135;-78
2021/10/06 05:56:26;;;;;;;2.22;0.60;;;12.10;98.90;;;;;;5053575;28;20136;-80
2021/10/06 05:58:53;;;;;;;2.40;0.63;;;12.10;98.80;;;;;;5053500;28;20132;-77
2021/10/06 06:01:20;;;;;;;3.28;0.70;;;12.00;98.90;;;;;;5053524;28;20044;-79
2021/10/06 06:03:47;;;;;;;2.20;0.55;;;12.00;98.80;;;;;;5053473;28;20131;-80
2021/10/06 06:06:14;;;;;;;3.17;0.65;;;12.00;98.80;;;;;;5053568;28;20132;-79
2021/10/06 06:08:41;;;;;;;2.65;0.70;;;12.00;98.80;;;;;;5053718;28;20468;-80
2021/10/06 06:11:08;;;;;;;2.05;0.60;;;12.00;98.80;;;;;;5053494;28;20136;-79
2021/10/06 06:13:37;;;;;;;2.83;0.73;;;12.10;98.80;;;;;;5053438;28;20143;-80
2021/10/06 06:16:05;;;;;;;3.20;0.60;;;12.10;98.60;;;;;;5053483;28;20125;-78
2021/10/06 06:18:32;;;;;;;4.30;0.77;;;12.10;98.70;;;;;;5053134;28;20045;-79
2021/10/06 06:20:59;;;;;;;2.53;0.75;;;12.10;98.50;;;;;;5053447;28;20077;-78
2021/10/06 06:23:28;;;;;;;4.05;0.70;;;12.10;98.60;;;;;;5053415;28;20124;-78
2021/10/06 06:25:55;;;;;;;2.22;0.60;;;12.20;98.50;;;;;;5053294;28;20189;-78
2021/10/06 06:28:22;;;;;;;2.80;0.70;;;12.20;98.50;;;;;;5053230;28;20135;-79
2021/10/06 06:30:51;;;;;;;3.00;0.60;;;12.20;98.50;;;;;;5052978;28;20128;-80
2021/10/06 06:33:18;;;;;;;3.45;0.60;;;12.30;99.30;;;;;;5052858;28;20145;-79
2021/10/06 06:35:45;;;;;;;2.88;0.70;;;12.20;99.90;;;;;;5053317;28;20131;-80
2021/10/06 06:38:12;;;;;;;2.80;0.80;;;12.30;99.90;;;;;;5053055;28;20080;-80
2021/10/06 06:40:41;;;;;;;3.17;0.82;;;12.30;99.90;;;;;;5052961;28;20136;-80
2021/10/06 06:43:08;;;;;;;3.08;0.77;;;12.40;98.50;;;;;;5053127;28;20475;-80
2021/10/06 06:45:36;;;;;;;2.20;0.65;;;12.40;98.40;;;;;;5052888;28;20152;-79
2021/10/06 06:48:05;;;;;;;2.72;0.77;;;12.50;99.10;;;;;;5052871;28;20137;-79
2021/10/06 06:50:33;;;;;;;1.80;0.77;;;12.60;99.60;;;;;;5053290;28;20084;-78
2021/10/06 06:53:00;;;;;;;3.95;0.90;;;12.50;99.70;;;;;;5052603;28;20053;-79
2021/10/06 06:55:27;;;;;;;3.92;1.08;;;12.50;99.40;;;;;;5057143;28;20561;-79
2021/10/06 06:57:54;;;;;;;3.05;0.70;;;12.50;99.40;;;;;;5059465;28;20060;-80
2021/10/06 07:00:22;;;;;;;3.75;0.80;;;12.60;98.30;;;;;;5059618;28;20493;-77
2021/10/06 07:02:49;;;;;;;2.53;0.68;;;12.50;97.60;;;;;;5059638;28;20573;-79
2021/10/06 07:05:18;;;;;;;2.97;0.70;;;12.50;97.80;;;;;;5062155;28;20439;-77
2021/10/06 07:07:47;;;;;;;5.25;0.85;;;12.50;97.70;;;;;;5061936;28;20048;-79
2021/10/06 07:10:15;;;;;;;2.80;0.70;;;12.50;97.70;;;;;;5059526;28;20131;-79
2021/10/06 07:12:42;;;;;;;4.35;0.77;;;12.50;97.70;;;;;;5059024;28;20048;-79
2021/10/06 07:15:10;;;;;;;2.70;0.73;;;12.60;97.70;;;;;;5059422;28;20128;-79
2021/10/06 07:17:37;;;;;;;4.10;0.90;;;12.60;97.70;;;;;;5059584;28;20140;-80
2021/10/06 07:20:05;;;;;;;2.03;0.77;;;12.50;97.50;;;;;;5059549;28;20133;-79
2021/10/06 07:22:34;;;;;;;2.90;0.68;;;12.60;97.30;;;;;;5059418;28;20045;-80
2021/10/06 07:25:01;;;;;;;6.05;1.17;;;12.50;97.40;;;;;;5059058;28;20052;-80
2021/10/06 07:27:28;;;;;;;3.47;0.75;;;12.50;97.50;;;;;;5059223;28;20577;-79
2021/10/06 07:29:55;;;;;;;3.63;0.90;;;12.50;97.30;;;;;;5060577;28;20577;-77
2021/10/06 07:32:22;;;;;;;4.05;1.08;;;12.50;99.20;;;;;;5059451;28;20405;-80
2021/10/06 07:34:49;;;;;;;3.00;0.70;;;12.50;99.80;;;;;;5059176;28;20162;-80
2021/10/06 07:37:17;;;;;;;2.97;0.65;;;12.60;99.10;;;;;;5059225;28;20129;-79
2021/10/06 07:39:45;;;;;;;3.17;0.88;;;12.60;98.50;;;;;;5059194;28;20127;-78
2021/10/06 07:42:12;;;;;;;2.78;0.60;;;12.50;98.10;;;;;;5059241;28;20060;-80
2021/10/06 07:44:40;;;;;;;2.42;0.77;;;12.50;98.10;;;;;;5059315;28;20135;-80
2021/10/06 07:47:07;;;;;;;2.53;0.93;;;12.50;98.30;;;;;;5059149;28;20107;-79
2021/10/06 07:49:34;;;;;;;4.00;1.00;;;12.60;97.80;;;;;;5059229;28;20143;-80
2021/10/06 07:52:01;;;;;;;3.30;1.08;;;12.60;98.00;;;;;;5058871;28;20136;-79
2021/10/06 07:54:28;;;;;;;3.67;0.77;;;12.40;96.80;;;;;;5058899;28;20147;-80
2021/10/06 07:56:57;;;;;;;5.13;0.95;;;12.60;96.90;;;;;;5059235;28;20131;-80
2021/10/06 07:59:24;;;;;;;4.82;0.98;;;12.60;96.60;;;;;;5058933;28;20077;-79
2021/10/06 08:01:51;;;;;;;4.30;0.80;;;12.60;96.30;;;;;;5059068;28;20132;-80
2021/10/06 08:04:18;;;;;;;4.25;1.05;;;12.50;96.20;;;;;;5058762;28;20577;-80
2021/10/06 08:06:45;;;;;;;3.70;1.00;;;12.60;96.30;;;;;;5056219;28;20140;-79
2021/10/06 08:09:12;;;;;;;4.55;0.90;;;12.60;96.00;;;;;;5055955;28;20110;-79
2021/10/06 08:11:39;;;;;;;3.53;0.88;;;12.60;95.90;;;;;;5055848;28;20135;-79
2021/10/06 08:14:08;;;;;;;7.97;1.15;;;12.60;95.90;;;;;;5055515;28;20127;-78
2021/10/06 08:16:35;;;;;;;3.95;0.90;;;12.60;96.00;;;;;;5056417;28;20136;-80
2021/10/06 08:19:02;;;;;;;2.60;0.70;;;12.60;95.90;;;;;;5055439;28;20140;-80
2021/10/06 08:21:29;;;;;;;3.42;0.88;;;12.60;95.90;;;;;;5056094;28;20140;-79
2021/10/06 08:23:56;;;;;;;3.17;0.82;;;12.60;96.20;;;;;;5055969;28;20133;-77
2021/10/06 08:26:23;;;;;;;2.42;0.73;;;12.60;96.20;;;;;;5055777;28;20128;-79
2021/10/06 08:28:50;;;;;;;3.97;0.73;;;12.60;95.80;;;;;;5055400;28;20136;-80
2021/10/06 08:31:20;;;;;;;4.72;1.10;;;12.70;95.80;;;;;;5055377;28;20139;-80
2021/10/06 08:33:47;;;;;;;2.63;0.80;;;12.70;95.90;;;;;;5055113;28;20112;-80
2021/10/06 08:36:14;;;;;;;4.95;0.88;;;12.70;96.00;;;;;;5055341;28;20470;-80
2021/10/06 08:38:42;;;;;;;4.00;0.75;;;12.70;96.20;;;;;;5055239;28;20132;-79
2021/10/06 08:41:09;;;;;;;3.20;0.75;;;12.70;96.20;;;;;;5055031;28;20095;-79
2021/10/06 08:43:37;;;;;;;4.57;0.85;;;12.80;96.30;;;;;;5054896;28;20557;-80
2021/10/06 08:46:04;;;;;;;5.78;0.80;;;12.80;95.90;;;;;;5055047;28;20041;-80
2021/10/06 08:48:32;;;;;;;4.25;0.80;;;12.80;95.40;;;;;;5054818;28;20465;-79
2021/10/06 08:51:00;;;;;;;4.10;1.00;;;12.90;95.10;;;;;;5055201;28;20132;-77
2021/10/06 08:53:27;;;;;;;4.45;1.08;;;12.90;94.40;;;;;;5055393;28;20106;-77
2021/10/06 08:55:54;;;;;;;6.82;0.90;;;12.90;94.10;;;;;;5054966;28;20083;-78
2021/10/06 08:58:21;;;;;;;6.03;1.00;;;12.90;94.10;;;;;;5054758;28;20457;-77
2021/10/06 09:00:56;;;;;;;3.78;1.00;;;12.90;94.30;;;;;;5054554;28;20136;-80
2021/10/06 09:03:28;;;;;;;5.10;0.90;;;13.00;94.40;;;;;;5054874;28;20135;-79
2021/10/06 09:06:08;;;;;;;4.35;0.90;;;13.10;94.10;;;;;;5054879;28;20128;-79
2021/10/06 09:08:38;;;;;;;3.97;0.80;;;13.20;93.40;;;;;;5054680;28;20128;-79
2021/10/06 09:11:07;;;;;;;3.22;0.80;;;13.20;93.30;;;;;;5054462;28;20139;-78
2021/10/06 09:13:38;;;;;;;3.90;0.88;;;13.20;93.20;;;;;;5054195;28;20139;-79
2021/10/06 09:16:06;;;;;;;4.95;0.95;;;13.20;92.90;;;;;;5054680;28;20129;-80
2021/10/06 09:18:34;;;;;;;4.15;0.85;;;13.20;93.50;;;;;;5053369;28;20509;-80
2021/10/06 09:21:04;;;;;;;4.30;0.95;;;13.10;92.80;;;;;;5054311;28;20055;-78
2021/10/06 09:23:38;;;;;;;5.20;1.15;;;13.10;93.20;;;;;;5054353;28;20467;-79
2021/10/06 09:26:08;;;;;;;3.17;0.70;;;13.10;93.50;;;;;;5054444;28;20088;-79
2021/10/06 09:28:39;;;;;;;4.68;0.90;;;13.10;93.60;;;;;;5054208;28;20370;-78
2021/10/06 09:31:09;;;;;;;6.47;1.05;;;13.10;93.60;;;;;;5054261;28;20127;-80
2021/10/06 09:33:42;;;;;;;2.03;0.60;;;13.10;93.70;;;;;;5054372;28;20473;-80
2021/10/06 09:36:13;;;;;;;4.75;0.93;;;13.20;93.50;;;;;;5053691;28;20084;-79
2021/10/06 09:38:49;;;;;;;3.88;0.80;;;13.20;93.70;;;;;;5053723;28;20250;-80
2021/10/06 09:41:37;;;;;;;4.43;1.00;;;13.30;93.70;;;;;;5054265;28;20139;-80
2021/10/06 09:44:11;;;;;;;3.85;0.85;;;13.40;93.70;;;;;;5053923;28;20486;-80
2021/10/06 09:46:51;;;;;;;3.70;0.83;;;13.40;93.40;;;;;;5053825;28;20147;-80
2021/10/06 09:49:25;;;;;;;3.28;0.70;;;13.50;93.60;;;;;;5053631;28;20383;-79
2021/10/06 09:51:54;;;;;;;5.22;0.80;;;13.50;93.30;;;;;;5053610;28;20124;-80
2021/10/06 09:54:23;;;;;;;3.17;0.95;;;13.50;93.40;;;;;;5053289;28;20057;-80
2021/10/06 09:56:51;;;;;;;2.95;0.60;;;13.50;92.80;;;;;;5053467;28;20059;-79
2021/10/06 09:59:18;;;;;;;4.10;0.75;;;13.50;93.10;;;;;;5053500;28;20049;-80
2021/10/06 10:01:48;;;;;;;3.92;0.90;;;13.60;93.30;;;;;;5053544;28;20140;-79
2021/10/06 10:04:15;;;;;;;4.03;0.90;;;13.70;92.40;;;;;;5053475;28;20671;-79
2021/10/06 10:06:42;;;;;;;3.88;1.00;;;13.70;92.40;;;;;;5053490;28;20072;-77
2021/10/06 10:09:13;;;;;;;4.13;0.80;;;13.70;92.50;;;;;;5053351;28;20077;-79
2021/10/06 10:11:43;;;;;;;5.38;0.82;;;13.80;92.60;;;;;;5052911;28;20052;-76
2021/10/06 10:14:10;;;;;;;2.72;0.60;;;13.90;92.00;;;;;;5034710;28;20056;-79
2021/10/06 10:16:39;;;;;;;3.30;0.75;;;13.90;91.60;;;;;;5031311;28;20132;-80
2021/10/06 10:19:09;;;;;;;5.30;1.10;;;14.00;91.70;;;;;;5030962;28;20049;-76
2021/10/06 10:21:40;;;;;;;4.50;0.90;;;14.00;91.60;;;;;;5031023;28;20129;-80
2021/10/06 10:24:11;;;;;;;4.35;0.95;;;14.00;91.30;;;;;;5030704;28;20140;-79
2021/10/06 10:26:56;;;;;;;3.70;0.63;;;14.00;91.20;;;;;;5030818;28;20427;-81
2021/10/06 10:29:39;;;;;;;3.40;0.73;;;14.00;91.60;;;;;;5030649;28;20149;-75
2021/10/06 10:32:09;;;;;;;4.43;0.73;;;14.10;92.10;;;;;;5030689;28;20558;-76
2021/10/06 10:35:05;;;;;;;2.60;0.80;;;14.10;91.90;;;;;;5030759;28;20095;-76
2021/10/06 10:38:16;;;;;;;2.47;0.80;;;14.10;91.70;;;;;;5032158;28;20358;-74
2021/10/06 10:40:57;;;;;;;4.25;0.70;;;14.20;91.90;;;;;;5042467;28;20055;-75
2021/10/06 10:43:29;;;;;;;3.80;0.90;;;14.20;92.20;;;;;;5049015;28;20049;-76
2021/10/06 10:46:11;;;;;;;3.28;1.02;;;14.20;91.70;;;;;;5030228;28;20406;-75
2021/10/06 10:49:04;;;;;;;4.95;1.00;;;14.20;91.70;;;;;;5029576;28;20499;-76
2021/10/06 10:51:49;;;;;;;2.33;0.75;;;14.20;91.60;;;;;;5029841;28;20081;-74
2021/10/06 10:54:37;;;;;;;3.13;0.88;;;14.10;91.90;;;;;;5029712;28;20053;-76
2021/10/06 10:57:18;;;;;;;3.88;0.80;;;14.10;92.00;;;;;;5030143;28;20471;-76
2021/10/06 10:59:49;;;;;;;4.93;0.80;;;14.10;92.30;;;;;;5029782;28;20049;-78
2021/10/06 11:02:20;;;;;;;2.75;0.73;;;14.20;92.20;;;;;;5029390;28;20136;-76
2021/10/06 11:04:55;;;;;;;3.97;0.90;;;14.20;91.60;;;;;;5030634;28;20466;-78
2021/10/06 11:07:23;;;;;;;3.33;0.90;;;14.20;91.60;;;;;;5030214;28;20046;-78
2021/10/06 11:09:54;;;;;;;2.35;0.80;;;14.20;92.10;;;;;;5049774;28;20471;-79
2021/10/06 11:12:38;;;;;;;3.33;0.88;;;14.20;91.00;;;;;;5049596;28;20139;-77
2021/10/06 11:15:29;;;;;;;2.80;1.00;;;14.20;91.10;;;;;;5049370;28;20056;-78
2021/10/06 11:18:25;;;;;;;3.05;0.80;;;14.20;91.60;;;;;;5049751;28;20123;-76
2021/10/06 11:21:04;;;;;;;4.28;0.70;;;14.30;91.70;;;;;;5049823;28;20076;-76
2021/10/06 11:23:59;;;;;;;2.88;0.70;;;14.40;92.00;;;;;;5047914;28;20102;-77
2021/10/06 11:26:35;;;;;;;4.05;0.93;;;14.40;91.90;;;;;;5049505;28;20136;-76
2021/10/06 11:29:08;;;;;;;2.70;0.65;;;14.50;91.90;;;;;;5049170;28;20464;-76
2021/10/06 11:31:38;;;;;;;3.28;0.70;;;14.50;92.10;;;;;;5049883;28;20052;-75
2021/10/06 11:34:18;;;;;;;2.78;0.85;;;14.50;91.90;;;;;;5049531;28;20084;-76
2021/10/06 11:36:51;;;;;;;3.45;0.70;;;14.60;91.90;;;;;;5048108;28;20507;-76
2021/10/06 11:39:18;;;;;;;4.45;0.77;;;14.70;91.70;;;;;;5029894;28;20140;-77
2021/10/06 11:41:48;;;;;;;2.58;0.60;;;14.80;91.60;;;;;;5030864;28;20052;-77
2021/10/06 11:44:29;;;;;;;4.47;0.80;;;14.90;91.30;;;;;;5033876;28;20055;-77
2021/10/06 11:46:59;;;;;;;3.80;0.80;;;14.90;91.50;;;;;;5044255;28;20585;-78
2021/10/06 11:49:29;;;;;;;4.15;0.77;;;15.10;91.20;;;;;;5033100;28;20136;-77
2021/10/06 11:51:58;;;;;;;3.17;0.85;;;15.20;89.70;;;;;;5047622;28;20132;-76
2021/10/06 11:54:25;;;;;;;3.83;0.80;;;15.30;87.70;;;;;;5052414;28;20049;-76
2021/10/06 11:56:55;;;;;;;2.72;0.70;;;15.30;88.70;;;;;;5052731;28;20057;-75
2021/10/06 11:59:25;;;;;;;4.28;0.77;;;15.40;88.10;;;;;;5052948;28;20127;-75
2021/10/06 12:01:55;;;;;;;2.55;0.75;;;15.50;88.00;;;;;;5053072;28;20049;-80
2021/10/06 12:04:25;;;;;;;2.58;0.73;;;15.70;87.70;;;;;;5052822;28;20060;-76
2021/10/06 12:06:59;;;;;;;3.60;0.77;;;15.80;85.90;;;;;;5052283;28;20447;-76
2021/10/06 12:09:28;;;;;;;5.45;0.90;;;15.90;85.30;;;;;;5052719;28;20053;-78
2021/10/06 12:11:55;;;;;;;3.58;0.77;;;16.00;82.90;;;;;;5052746;28;20051;-77
2021/10/06 12:14:25;;;;;;;3.75;0.70;;;16.00;81.70;;;;;;5053135;28;20095;-79
2021/10/06 12:17:10;;;;;;;3.33;0.75;;;16.00;82.00;;;;;;5043067;28;20136;-78
2021/10/06 12:19:40;;;;;;;2.83;0.93;;;16.00;80.30;;;;;;5033109;28;20052;-79
2021/10/06 12:22:09;;;;;;;2.60;0.73;;;16.10;81.70;;;;;;5032599;28;20442;-78
2021/10/06 12:24:40;;;;;;;3.40;0.60;;;16.20;81.50;;;;;;5033095;28;20128;-80
2021/10/06 12:27:08;;;;;;;2.38;0.52;;;16.20;79.00;;;;;;5032438;28;20046;-79
2021/10/06 12:29:35;;;;;;;3.15;0.57;;;16.20;77.60;;;;;;5032992;28;20060;-79
2021/10/06 12:32:14;;;;;;;2.55;0.60;;;16.10;75.80;;;;;;5034051;28;20128;-79
2021/10/06 12:34:44;;;;;;;1.63;0.40;;;16.10;74.50;;;;;;5032132;28;20053;-77
2021/10/06 12:37:15;;;;;;;2.10;0.63;;;16.10;75.50;;;;;;5032234;28;20085;-78
2021/10/06 12:39:43;;;;;;;2.88;0.63;;;16.10;75.90;;;;;;5032163;28;20046;-77
2021/10/06 12:42:10;;;;;;;3.47;0.80;;;16.10;74.80;;;;;;5032577;28;20068;-79
2021/10/06 12:44:44;;;;;;;3.33;0.80;;;16.10;75.00;;;;;;5032585;28;20140;-78
2021/10/06 12:47:14;;;;;;;2.55;0.57;;;16.20;76.70;;;;;;5033013;28;20049;-78
2021/10/06 12:49:52;;;;;;;1.33;0.43;;;16.40;77.70;;;;;;5032478;28;20145;-75
2021/10/06 12:52:27;;;;;;;4.82;0.75;;;16.30;77.60;;;;;;5031622;28;20133;-78
2021/10/06 12:55:12;;;;;;;3.22;0.90;;;16.20;77.10;;;;;;5032291;28;20084;-80
2021/10/06 12:57:40;;;;;;;;;;;16.00;79.00;;;;;;5033077;28;20459;-78
2021/10/06 13:00:20;;;;;;;3.55;0.80;;;15.90;76.90;;;;;;5032815;28;19925;-78